Time;durP1;ratioP1;P1;durP2;ratioP2;P2;SDS_P1;SDS_P2;PMS_P1;PMS_P2;Temp;Humidity;BMP_temperature;BMP_pressure;BME280_temperature;BME280_humidity;BME280_pressure;Samples;Min_cycle;Max_cycle;Signal;HPM_P1;HPM_P2
2022/05/16 00:00:24;;;;;;;11.65;4.40;;;;;;;20.14;43.08;101469.00;4934798;28;20562;-60
2022/05/16 00:02:50;;;;;;;12.13;4.65;;;;;;;20.14;42.18;101469.00;4906571;28;20630;-57
2022/05/16 00:05:16;;;;;;;15.77;4.78;;;;;;;20.08;42.78;101462.03;4917474;28;20042;-57
2022/05/16 00:07:41;;;;;;;10.73;4.45;;;;;;;20.04;43.33;101467.41;4911514;28;20462;-57
2022/05/16 00:10:08;;;;;;;11.55;4.65;;;;;;;20.00;42.90;101455.13;4908037;28;20085;-58
2022/05/16 00:12:33;;;;;;;11.45;4.57;;;;;;;19.97;43.08;101455.16;4923589;28;20856;-58
2022/05/16 00:14:59;;;;;;;13.65;4.70;;;;;;;19.90;43.64;101459.69;4919179;28;20581;-59
2022/05/16 00:17:24;;;;;;;14.55;4.50;;;;;;;19.83;43.51;101450.97;4902331;28;21525;-59
2022/05/16 00:19:49;;;;;;;12.35;4.60;;;;;;;19.79;43.71;101448.41;4915499;28;20046;-60
2022/05/16 00:22:15;;;;;;;10.82;4.53;;;;;;;19.73;44.59;101448.50;4921764;28;20050;-59
2022/05/16 00:24:42;;;;;;;11.60;4.90;;;;;;;19.67;44.25;101441.53;4918320;28;20043;-59
2022/05/16 00:27:08;;;;;;;12.57;4.55;;;;;;;19.59;44.28;101435.47;4909231;28;20578;-58
2022/05/16 00:29:33;;;;;;;11.82;4.85;;;;;;;19.53;44.69;101434.69;4907761;28;20039;-60
2022/05/16 00:31:59;;;;;;;9.15;4.15;;;;;;;19.46;44.91;101431.25;4917665;28;20122;-59
2022/05/16 00:34:25;;;;;;;12.40;4.68;;;;;;;19.41;45.81;101427.75;4917035;28;20597;-59
2022/05/16 00:36:51;;;;;;;13.65;4.45;;;;;;;19.39;45.65;101424.28;4920573;28;20035;-59
2022/05/16 00:39:18;;;;;;;12.40;4.78;;;;;;;19.39;45.16;101419.00;4926007;28;20426;-59
2022/05/16 00:41:45;;;;;;;10.27;4.78;;;;;;;19.39;45.07;101424.28;4918618;28;20097;-59
2022/05/16 00:44:10;;;;;;;11.35;4.45;;;;;;;19.41;45.39;101419.84;4911718;28;20043;-60
2022/05/16 00:46:36;;;;;;;11.85;4.57;;;;;;;19.36;45.76;101416.38;4947878;28;20038;-60
2022/05/16 00:49:07;;;;;;;10.40;4.68;;;;;;;19.35;45.84;101414.63;4913823;28;20043;-59
2022/05/16 00:51:38;;;;;;;13.23;4.95;;;;;;;19.34;45.41;101408.47;4904388;28;20443;-59
2022/05/16 00:54:35;;;;;;;10.20;4.70;;;;;;;19.30;45.71;101411.19;4916961;28;20791;-60
2022/05/16 00:57:05;;;;;;;12.93;4.45;;;;;;;19.36;45.15;101403.16;4907525;28;20050;-59
2022/05/16 00:59:45;;;;;;;12.20;4.60;;;;;;;19.35;45.62;101404.06;4908442;28;20075;-59
2022/05/16 01:04:56;;;;;;;13.07;4.68;;;;;;;19.23;46.03;101391.00;4916928;28;20346;-59
2022/05/16 01:07:28;;;;;;;11.10;4.78;;;;;;;19.26;45.63;101388.34;4911335;28;20055;-58
2022/05/16 01:09:54;;;;;;;10.65;4.68;;;;;;;19.25;45.54;101392.75;4912390;28;20471;-58
2022/05/16 01:12:23;;;;;;;11.35;4.78;;;;;;;19.23;45.50;101389.25;4918832;28;20051;-59
2022/05/16 01:14:56;;;;;;;9.98;4.53;;;;;;;19.24;46.06;101384.84;4916004;28;20038;-58
2022/05/16 01:17:22;;;;;;;12.68;4.70;;;;;;;19.10;46.00;101382.38;4902974;28;20166;-59
2022/05/16 01:19:47;;;;;;;10.70;4.47;;;;;;;19.17;45.78;101381.41;4916291;28;20047;-60
2022/05/16 01:22:24;;;;;;;12.00;4.75;;;;;;;19.23;45.98;101375.16;4916367;28;20122;-57
2022/05/16 01:24:52;;;;;;;14.43;4.90;;;;;;;19.25;45.82;101378.66;4912610;28;20674;-60
2022/05/16 01:27:17;;;;;;;11.75;4.70;;;;;;;19.21;46.20;101367.22;4931733;28;20047;-60
2022/05/16 01:29:42;;;;;;;13.40;4.70;;;;;;;19.16;46.72;101360.25;4915542;28;20050;-59
2022/05/16 01:32:10;;;;;;;10.63;4.75;;;;;;;19.11;46.66;101362.09;4912891;28;20727;-60
2022/05/16 01:34:36;;;;;;;13.45;4.90;;;;;;;19.10;46.36;101371.78;4919350;28;20054;-59
2022/05/16 01:37:01;;;;;;;12.82;4.57;;;;;;;19.07;46.77;101379.78;4918425;28;20452;-60
2022/05/16 01:39:27;;;;;;;12.48;4.50;;;;;;;19.01;46.67;101374.59;4908506;28;20410;-59
2022/05/16 01:41:52;;;;;;;14.23;4.90;;;;;;;19.03;46.46;101373.66;4915612;28;20123;-58
2022/05/16 01:44:18;;;;;;;11.27;4.78;;;;;;;18.99;47.08;101366.66;4921242;28;20093;-58
2022/05/16 01:46:43;;;;;;;12.70;5.35;;;;;;;18.94;47.25;101360.56;4917348;28;20047;-59
2022/05/16 01:49:10;;;;;;;10.77;4.72;;;;;;;18.95;47.27;101372.03;4914845;28;20506;-59
2022/05/16 01:51:36;;;;;;;11.23;4.63;;;;;;;18.84;47.67;101361.59;4908722;28;20509;-58
2022/05/16 01:54:03;;;;;;;10.40;4.60;;;;;;;18.82;47.56;101359.84;4914199;28;20047;-58
2022/05/16 01:56:32;;;;;;;14.05;4.88;;;;;;;18.83;47.76;101351.03;4918384;28;20054;-59
2022/05/16 01:58:58;;;;;;;13.35;5.00;;;;;;;18.74;48.55;101343.22;4911603;28;20089;-58
2022/05/16 02:01:24;;;;;;;10.88;4.68;;;;;;;18.68;48.64;101357.38;4908385;28;20056;-57
2022/05/16 02:03:49;;;;;;;13.90;4.90;;;;;;;18.58;48.90;101354.00;4914847;28;20744;-58
2022/05/16 02:06:15;;;;;;;19.27;4.70;;;;;;;18.58;49.20;101361.91;4916686;28;20923;-59
2022/05/16 02:08:42;;;;;;;10.18;4.53;;;;;;;18.62;48.52;101353.06;4928915;28;20448;-59
2022/05/16 02:11:08;;;;;;;10.93;4.80;;;;;;;18.56;48.85;101352.25;4917259;28;20144;-60
2022/05/16 02:13:38;;;;;;;13.40;5.55;;;;;;;18.53;49.26;101344.34;4911584;28;20819;-57
2022/05/16 02:16:05;;;;;;;11.60;4.88;;;;;;;18.57;49.00;101344.31;4906758;28;20523;-58
2022/05/16 02:18:30;;;;;;;13.27;5.13;;;;;;;18.48;49.76;101346.16;4904493;28;20510;-59
2022/05/16 02:24:38;;;;;;;12.82;5.00;;;;;;;18.40;50.01;101343.59;4922068;28;20039;-59
2022/05/16 02:26:27;;;;;;;13.27;5.40;;;;;;;18.54;49.31;101335.53;4911766;28;20584;-56
2022/05/16 02:28:53;;;;;;;15.88;4.90;;;;;;;18.52;49.58;101332.03;4913623;28;20062;-58
2022/05/16 02:31:20;;;;;;;12.75;4.88;;;;;;;18.49;49.55;101326.78;4902929;28;20043;-61
2022/05/16 02:33:46;;;;;;;12.73;4.75;;;;;;;18.43;49.94;101332.13;4917145;28;20050;-58
2022/05/16 02:36:11;;;;;;;13.27;5.30;;;;;;;18.33;50.93;101323.44;4918067;28;20997;-57
2022/05/16 02:38:36;;;;;;;10.85;4.72;;;;;;;18.34;50.34;101316.41;4918716;28;20441;-60
2022/05/16 02:41:02;;;;;;;14.02;5.22;;;;;;;18.36;50.22;101317.28;4904551;28;20205;-57
2022/05/16 02:43:27;;;;;;;14.00;5.20;;;;;;;18.33;50.20;101312.88;4911078;28;20059;-58
2022/05/16 02:45:52;;;;;;;13.10;5.35;;;;;;;18.23;50.95;101295.41;4913988;28;20061;-58
2022/05/16 02:48:18;;;;;;;14.52;5.30;;;;;;;18.14;51.22;101292.88;4915339;28;20467;-58
2022/05/16 02:50:43;;;;;;;15.30;5.15;;;;;;;18.06;51.71;101284.16;4914914;28;20039;-60
2022/05/16 02:53:10;;;;;;;11.65;5.40;;;;;;;18.53;50.04;101288.88;4918847;28;20040;-60
2022/05/16 02:55:36;;;;;;;11.68;5.00;;;;;;;18.72;49.35;101297.50;4915170;28;20171;-59
2022/05/16 02:58:01;;;;;;;17.48;5.95;;;;;;;18.75;49.43;101305.34;4908449;28;20054;-59
2022/05/16 03:00:26;;;;;;;14.40;5.50;;;;;;;18.75;49.91;101295.66;4917616;28;20051;-59
2022/05/16 03:02:52;;;;;;;13.98;5.40;;;;;;;18.82;49.25;101281.47;4920036;28;20043;-59
2022/05/16 03:05:21;;;;;;;10.88;5.40;;;;;;;18.91;48.82;101276.06;4914518;28;20046;-59
2022/05/16 03:07:46;;;;;;;12.20;5.28;;;;;;;18.98;48.31;101288.28;4920304;28;20110;-59
2022/05/16 03:10:15;;;;;;;13.00;5.60;;;;;;;19.03;48.60;101293.50;4931237;28;20062;-60
2022/05/16 03:12:42;;;;;;;14.32;5.28;;;;;;;19.04;48.41;101295.25;4918845;28;20047;-59
2022/05/16 03:15:08;;;;;;;15.43;5.43;;;;;;;19.10;48.38;101286.34;4912353;28;20341;-59
2022/05/16 03:17:33;;;;;;;13.25;5.40;;;;;;;19.13;48.13;101304.81;4902907;28;20039;-59
2022/05/16 03:20:00;;;;;;;15.50;5.65;;;;;;;19.15;48.01;101295.94;4918586;28;20051;-60
2022/05/16 03:22:25;;;;;;;14.80;5.70;;;;;;;19.09;48.97;101271.41;4919648;28;20039;-59
2022/05/16 03:24:51;;;;;;;14.70;5.80;;;;;;;19.03;48.73;101275.88;4920339;28;20066;-58
2022/05/16 03:27:16;;;;;;;14.00;5.85;;;;;;;19.11;48.12;101283.69;4914370;28;20573;-58
2022/05/16 03:29:42;;;;;;;12.85;5.72;;;;;;;19.15;48.31;101295.13;4915572;28;20042;-59
2022/05/16 03:32:07;;;;;;;13.52;6.00;;;;;;;19.12;47.92;101296.00;4915359;28;20060;-58
2022/05/16 03:34:33;;;;;;;12.82;6.00;;;;;;;19.18;47.99;101298.56;4926748;28;20298;-60
2022/05/16 03:36:58;;;;;;;16.55;6.30;;;;;;;19.13;48.40;101289.84;4914351;28;20061;-58
2022/05/16 03:42:08;;;;;;;13.30;6.32;;;;;;;19.20;48.24;101294.13;4921696;28;20442;-61
2022/05/16 03:44:33;;;;;;;16.23;6.32;;;;;;;19.21;48.30;101300.31;4920388;28;20051;-59
2022/05/16 03:46:58;;;;;;;18.67;6.65;;;;;;;19.17;48.61;101295.94;4913278;28;20040;-60
2022/05/16 03:49:24;;;;;;;16.13;6.40;;;;;;;19.14;48.69;101288.06;4916695;28;20459;-60
2022/05/16 03:51:50;;;;;;;15.40;5.82;;;;;;;19.07;48.47;101291.69;4915307;28;20047;-59
2022/05/16 03:54:17;;;;;;;14.85;6.53;;;;;;;19.14;48.61;101296.88;4917778;28;20653;-59
2022/05/16 03:56:43;;;;;;;14.43;6.30;;;;;;;19.12;48.66;101289.84;4907474;28;20526;-58
2022/05/16 03:59:11;;;;;;;14.27;6.40;;;;;;;19.02;48.59;101292.66;4919137;28;20126;-58
2022/05/16 04:01:36;;;;;;;12.93;6.50;;;;;;;18.91;49.40;101291.91;4910248;28;20447;-58
2022/05/16 04:04:01;;;;;;;15.00;6.80;;;;;;;18.91;49.41;101283.09;4914270;28;20058;-58
2022/05/16 04:06:27;;;;;;;12.93;6.68;;;;;;;18.94;49.36;101280.44;4923143;28;20045;-57
2022/05/16 04:08:54;;;;;;;16.52;6.72;;;;;;;18.91;49.40;101293.66;4922033;28;20278;-59
2022/05/16 04:11:19;;;;;;;15.52;6.70;;;;;;;18.87;49.45;101286.69;4911996;28;20487;-61
2022/05/16 04:13:46;;;;;;;14.80;6.70;;;;;;;18.91;49.88;101275.19;4920407;28;20138;-59
2022/05/16 04:16:12;;;;;;;16.25;7.30;;;;;;;18.99;49.92;101287.41;4919273;28;20403;-59
2022/05/16 04:18:38;;;;;;;18.65;6.97;;;;;;;19.02;49.53;101286.50;4917064;28;20502;-60
2022/05/16 04:21:04;;;;;;;15.43;7.20;;;;;;;19.11;49.41;101281.06;4920022;28;20824;-59
2022/05/16 04:23:30;;;;;;;14.90;7.15;;;;;;;19.18;49.45;101281.84;4916011;28;20051;-60
2022/05/16 04:25:56;;;;;;;14.73;7.20;;;;;;;19.30;49.52;101289.56;4920244;28;20118;-59
2022/05/16 04:28:22;;;;;;;15.48;7.50;;;;;;;19.29;49.25;101285.19;4920853;28;20047;-58
2022/05/16 04:30:47;;;;;;;19.40;7.28;;;;;;;19.43;49.00;101285.84;4922786;28;20050;-59
2022/05/16 04:33:14;;;;;;;15.45;7.25;;;;;;;19.50;48.94;101278.72;4918529;28;20054;-60
2022/05/16 04:35:40;;;;;;;19.38;7.10;;;;;;;19.52;48.75;101276.91;4918080;28;20452;-58
2022/05/16 04:38:06;;;;;;;16.98;7.15;;;;;;;19.50;48.51;101276.94;4923703;28;20174;-60
2022/05/16 04:40:32;;;;;;;15.45;7.50;;;;;;;19.52;48.39;101271.63;4925958;28;20129;-60
2022/05/16 04:42:58;;;;;;;14.05;7.07;;;;;;;19.73;48.37;101272.13;4908853;28;20142;-59
2022/05/16 04:45:29;;;;;;;14.25;7.28;;;;;;;20.00;47.40;101267.22;4909803;28;20051;-59
2022/05/16 04:48:01;;;;;;;14.38;6.50;;;;;;;20.44;46.47;101269.88;4914168;28;20165;-58
2022/05/16 04:50:29;;;;;;;15.93;7.32;;;;;;;20.95;45.07;101280.25;4918989;28;20136;-58
2022/05/16 04:52:55;;;;;;;16.10;6.97;;;;;;;21.29;44.53;101269.72;4917991;28;20070;-59
2022/05/16 04:55:22;;;;;;;11.27;6.70;;;;;;;21.56;44.00;101282.31;4914643;28;20118;-59
2022/05/16 04:57:47;;;;;;;13.75;6.80;;;;;;;21.65;43.93;101290.03;4912811;28;20051;-59
2022/05/16 05:00:14;;;;;;;15.43;7.28;;;;;;;21.69;43.82;101288.19;4914623;28;20066;-59
2022/05/16 05:02:40;;;;;;;13.95;6.63;;;;;;;21.14;44.35;101291.28;4914660;28;20086;-60
2022/05/16 05:05:07;;;;;;;18.00;7.13;;;;;;;20.94;45.83;101291.75;4920021;28;20460;-60
2022/05/16 05:07:34;;;;;;;14.10;7.13;;;;;;;20.78;45.82;101290.34;4907789;28;20109;-59
2022/05/16 05:15:32;;;;;;;14.68;7.72;;;;;;;20.55;46.57;101296.16;4913896;28;20097;-58
2022/05/16 05:17:57;;;;;;;14.98;7.60;;;;;;;20.41;46.41;101298.22;4916472;28;20407;-60
2022/05/16 05:20:23;;;;;;;16.80;7.78;;;;;;;20.48;46.44;101291.88;4918110;28;20055;-60
2022/05/16 05:22:49;;;;;;;17.75;7.97;;;;;;;20.43;47.25;101291.13;4919250;28;20039;-58
2022/05/16 05:25:20;;;;;;;20.63;7.88;;;;;;;20.43;46.92;101288.47;4912353;28;20063;-59
2022/05/16 05:27:49;;;;;;;15.73;8.23;;;;;;;20.38;47.36;101296.47;4913357;28;20547;-58
2022/05/16 05:30:20;;;;;;;19.75;7.88;;;;;;;20.30;47.10;101290.44;4913444;28;20121;-59
2022/05/16 05:32:47;;;;;;;15.05;7.50;;;;;;;20.31;47.77;101294.81;4908861;28;20150;-59
2022/05/16 05:35:14;;;;;;;14.05;7.97;;;;;;;20.32;47.54;101295.69;4914944;28;20050;-59
2022/05/16 05:37:40;;;;;;;14.73;8.23;;;;;;;20.52;47.33;101302.38;4916342;28;20052;-58
2022/05/16 05:40:06;;;;;;;16.55;8.00;;;;;;;20.50;47.48;101301.53;4913460;28;20040;-59
2022/05/16 05:42:33;;;;;;;16.92;8.20;;;;;;;20.47;47.98;101308.69;4916025;28;20048;-59
2022/05/16 05:44:59;;;;;;;15.90;8.20;;;;;;;20.45;48.29;101321.94;4920217;28;20460;-59
2022/05/16 05:47:25;;;;;;;17.92;8.57;;;;;;;20.48;48.12;101326.31;4915781;28;20141;-59
2022/05/16 05:49:51;;;;;;;17.30;8.75;;;;;;;20.61;48.37;101327.81;4913160;28;20175;-59
2022/05/16 05:52:17;;;;;;;17.20;8.57;;;;;;;20.64;47.75;101333.03;4920801;28;20057;-59
2022/05/16 05:54:43;;;;;;;21.98;9.10;;;;;;;20.60;48.01;101324.28;4915123;28;20601;-59
2022/05/16 05:57:08;;;;;;;17.48;8.90;;;;;;;20.58;48.29;101328.75;4918209;28;20243;-58
2022/05/16 05:59:34;;;;;;;15.65;8.23;;;;;;;20.41;48.38;101328.22;4895239;28;21096;-59
2022/05/16 06:01:59;;;;;;;24.83;8.20;;;;;;;20.50;48.55;101325.38;4915654;28;20613;-58
2022/05/16 06:04:25;;;;;;;16.25;8.23;;;;;;;20.48;49.15;101329.84;4914711;28;20217;-59
2022/05/16 06:06:50;;;;;;;16.80;8.02;;;;;;;20.55;48.66;101333.25;4916434;28;21168;-59
2022/05/16 06:09:16;;;;;;;17.05;8.68;;;;;;;20.55;49.64;101338.53;4913509;28;20126;-58
2022/05/16 06:11:41;;;;;;;14.68;8.18;;;;;;;20.49;49.06;101336.84;4931211;28;20716;-60
2022/05/16 06:14:07;;;;;;;17.33;8.40;;;;;;;20.52;49.64;101335.94;4916311;28;20538;-59
2022/05/16 06:16:32;;;;;;;14.82;8.20;;;;;;;20.58;49.48;101349.06;4917247;28;20499;-58
2022/05/16 06:18:57;;;;;;;19.50;9.23;;;;;;;20.52;49.75;101338.59;4913143;28;20070;-58
2022/05/16 06:21:23;;;;;;;17.10;8.63;;;;;;;20.59;48.85;101341.09;4910593;28;20204;-59
2022/05/16 06:23:49;;;;;;;19.30;8.57;;;;;;;20.55;49.35;101338.53;4919271;28;20106;-59
2022/05/16 06:26:14;;;;;;;18.40;8.32;;;;;;;20.65;48.72;101340.97;4910955;28;20043;-59
2022/05/16 06:28:39;;;;;;;15.57;8.50;;;;;;;20.63;50.00;101337.47;4916243;28;20078;-58
2022/05/16 06:31:06;;;;;;;14.43;8.68;;;;;;;20.73;50.02;101346.09;4919031;28;20043;-58
2022/05/16 06:33:32;;;;;;;14.93;8.23;;;;;;;20.88;49.89;101345.75;4904531;28;20098;-59
2022/05/16 06:35:58;;;;;;;17.15;8.45;;;;;;;20.99;50.27;101353.47;4910861;28;20051;-58
2022/05/16 06:38:28;;;;;;;21.45;8.82;;;;;;;21.16;49.70;101353.16;4912465;28;20150;-60
2022/05/16 06:40:55;;;;;;;17.92;9.20;;;;;;;21.24;48.44;101349.41;4908321;28;20178;-57
2022/05/16 06:43:22;;;;;;;18.33;9.07;;;;;;;21.44;47.96;101344.53;4903523;28;20059;-60
2022/05/16 06:45:48;;;;;;;24.35;9.48;;;;;;;21.71;47.76;101339.47;4912928;28;20102;-58
2022/05/16 06:48:13;;;;;;;19.67;8.82;;;;;;;22.01;47.09;101340.47;4916023;28;20574;-57
2022/05/16 06:50:40;;;;;;;16.25;8.85;;;;;;;22.30;46.42;101340.56;4909807;28;20047;-59
2022/05/16 06:53:14;;;;;;;19.63;9.50;;;;;;;22.71;44.50;101333.19;4917912;28;20035;-59
2022/05/16 06:55:42;;;;;;;;;;;;;;;23.56;44.94;101338.56;4910527;28;20423;-57
2022/05/16 06:58:08;;;;;;;18.40;8.20;;;;;;;24.89;41.11;101336.47;4913666;28;19926;-60
2022/05/16 07:00:33;;;;;;;14.52;7.88;;;;;;;26.73;38.54;101335.81;4918475;28;20051;-59
2022/05/16 07:02:58;;;;;;;17.13;8.20;;;;;;;27.20;35.96;101339.00;4915534;28;20035;-59
2022/05/16 07:05:24;;;;;;;13.85;7.25;;;;;;;28.60;34.05;101338.94;4910496;28;20066;-59
2022/05/16 07:07:49;;;;;;;13.05;6.85;;;;;;;29.96;33.03;101334.75;4916008;28;20039;-57
2022/05/16 07:10:14;;;;;;;15.35;7.10;;;;;;;29.79;32.95;101329.50;4920760;28;20058;-57
2022/05/16 07:12:42;;;;;;;12.70;6.72;;;;;;;29.71;30.68;101329.06;4916760;28;20418;-60
2022/05/16 07:15:08;;;;;;;18.50;6.75;;;;;;;29.23;33.79;101336.31;4914653;28;20069;-59
2022/05/16 07:17:33;;;;;;;14.50;7.30;;;;;;;28.08;35.94;101331.88;4913052;28;20178;-58
2022/05/16 07:19:59;;;;;;;14.15;7.35;;;;;;;27.15;36.28;101332.97;4918090;28;20067;-60
2022/05/16 07:22:25;;;;;;;16.98;7.30;;;;;;;26.10;39.07;101340.44;4914214;28;20047;-60
2022/05/16 07:24:55;;;;;;;17.75;7.47;;;;;;;25.80;39.01;101348.81;4920192;28;20054;-58
2022/05/16 07:30:06;;;;;;;20.17;7.85;;;;;;;25.19;42.94;101357.59;4917465;28;20222;-59
2022/05/16 07:32:34;;;;;;;19.92;7.75;;;;;;;25.20;43.78;101362.84;4913043;28;21527;-58
2022/05/16 07:35:05;;;;;;;18.42;7.15;;;;;;;25.17;42.45;101362.97;4923157;28;20114;-61
2022/05/16 07:37:31;;;;;;;18.73;7.50;;;;;;;25.25;42.66;101365.34;4907800;28;20184;-57
2022/05/16 07:39:58;;;;;;;11.50;6.90;;;;;;;25.29;41.63;101369.63;4916313;28;20503;-60
2022/05/16 07:42:24;;;;;;;15.65;8.05;;;;;;;25.19;41.74;101363.75;4919472;28;20093;-60
2022/05/16 07:44:50;;;;;;;18.13;7.15;;;;;;;25.42;42.13;101368.19;4919902;28;20758;-59
2022/05/16 07:47:15;;;;;;;17.95;7.13;;;;;;;25.62;42.20;101357.59;4915925;28;20570;-58
2022/05/16 07:49:41;;;;;;;13.38;7.05;;;;;;;25.64;42.69;101357.53;4925662;28;20054;-58
2022/05/16 07:52:06;;;;;;;9.95;6.15;;;;;;;26.08;40.95;101355.66;4911137;28;20421;-59
2022/05/16 07:54:32;;;;;;;16.88;6.30;;;;;;;26.47;40.85;101363.78;4921714;28;20110;-61
2022/05/16 07:56:57;;;;;;;14.85;6.18;;;;;;;26.99;39.57;101359.59;4918616;28;20050;-60
2022/05/16 07:59:23;;;;;;;13.93;6.15;;;;;;;27.25;39.52;101361.03;4908497;28;20047;-60
2022/05/16 08:01:48;;;;;;;10.40;5.63;;;;;;;28.10;37.81;101364.84;4918557;28;21034;-59
2022/05/16 08:04:14;;;;;;;11.52;5.38;;;;;;;28.06;37.02;101361.41;4920737;28;20570;-59
2022/05/16 08:06:40;;;;;;;14.52;5.60;;;;;;;28.02;38.11;101373.25;4907426;28;20605;-59
2022/05/16 08:11:49;;;;;;;8.95;4.97;;;;;;;29.38;35.73;101366.84;4912942;28;20180;-59
2022/05/16 08:14:15;;;;;;;12.95;5.30;;;;;;;29.85;35.69;101370.31;4918394;28;20073;-59
2022/05/16 08:16:40;;;;;;;11.20;4.65;;;;;;;29.99;35.27;101380.28;4911332;28;20044;-58
2022/05/16 08:19:06;;;;;;;9.73;4.47;;;;;;;30.20;35.05;101373.59;4908417;28;20632;-59
2022/05/16 08:21:31;;;;;;;13.18;5.10;;;;;;;30.11;34.31;101373.31;4911460;28;20199;-58
2022/05/16 08:23:57;;;;;;;9.82;4.40;;;;;;;29.91;35.73;101377.19;4914808;28;20047;-59
2022/05/16 08:26:23;;;;;;;15.35;4.70;;;;;;;29.57;36.33;101385.47;4916877;28;20047;-58
2022/05/16 08:28:49;;;;;;;13.77;4.85;;;;;;;29.00;36.30;101375.19;4908037;28;20047;-58
2022/05/16 08:31:14;;;;;;;10.65;4.18;;;;;;;29.20;37.62;101375.91;4898451;28;20598;-58
2022/05/16 08:33:50;;;;;;;10.05;4.60;;;;;;;29.39;36.68;101380.19;4909860;28;20055;-59
2022/05/16 08:41:59;;;;;;;7.45;4.15;;;;;;;29.69;37.36;101382.94;4914356;28;20113;-59
2022/05/16 08:44:36;;;;;;;12.82;4.22;;;;;;;29.16;37.88;101375.19;4912402;28;20063;-59
2022/05/16 08:47:10;;;;;;;10.32;4.05;;;;;;;29.49;37.04;101382.34;4910207;28;20173;-59
2022/05/16 08:49:41;;;;;;;8.93;4.10;;;;;;;29.22;37.43;101376.66;4911145;28;20256;-59
2022/05/16 08:52:26;;;;;;;11.02;3.80;;;;;;;29.42;36.74;101360.34;4914138;28;20183;-59
2022/05/16 08:55:33;;;;;;;8.73;3.95;;;;;;;29.26;37.49;101373.75;4915506;28;20258;-60
2022/05/16 08:58:11;;;;;;;11.23;4.05;;;;;;;29.37;37.00;101383.91;4920004;28;20126;-59
2022/05/16 09:01:07;;;;;;;10.10;3.47;;;;;;;29.35;36.89;101388.50;4911802;28;20050;-59
2022/05/16 09:03:35;;;;;;;10.25;3.40;;;;;;;29.59;37.94;101389.78;4907569;28;20043;-59
2022/05/16 09:06:12;;;;;;;8.07;3.50;;;;;;;29.55;36.46;101388.22;4917686;28;20133;-60
2022/05/16 09:09:05;;;;;;;8.35;2.97;;;;;;;29.84;36.05;101391.91;4922115;28;20043;-58
2022/05/16 09:11:44;;;;;;;;;;;;;;;30.04;36.42;101402.38;4911330;28;20051;-58
2022/05/16 09:14:40;;;;;;;6.22;2.92;;;;;;;30.20;34.96;101399.63;4922158;28;19922;-61
2022/05/16 09:17:17;;;;;;;7.15;2.85;;;;;;;30.22;34.74;101398.59;4917063;28;20130;-58
2022/05/16 09:19:59;;;;;;;9.13;3.00;;;;;;;30.50;34.42;101411.25;4904858;28;20050;-58
2022/05/16 09:22:39;;;;;;;6.22;3.00;;;;;;;30.67;33.86;101415.63;4916372;28;20085;-58
2022/05/16 09:25:14;;;;;;;8.50;2.90;;;;;;;30.88;34.37;101427.72;4917725;28;20454;-59
2022/05/16 09:30:29;;;;;;;8.40;3.10;;;;;;;30.61;35.72;101432.16;4914222;28;20054;-57
2022/05/16 09:33:04;;;;;;;9.45;3.40;;;;;;;30.32;35.37;101436.56;4913607;28;20078;-58
2022/05/16 09:35:41;;;;;;;8.93;3.20;;;;;;;30.30;36.77;101448.38;4908604;28;20054;-58
2022/05/16 09:52:22;;;;;;;13.90;4.90;;;;;;;30.03;35.38;101492.06;5027211;28;20398;-59
2022/05/16 09:55:00;;;;;;;13.63;4.70;;;;;;;29.83;36.33;101493.19;5033028;28;20082;-59
2022/05/16 09:57:25;;;;;;;9.43;4.50;;;;;;;29.53;36.76;101494.91;5014127;28;20496;-58
2022/05/16 09:59:59;;;;;;;10.75;4.75;;;;;;;29.04;37.10;101492.19;5027852;28;20086;-58
2022/05/16 10:02:31;;;;;;;11.27;4.97;;;;;;;28.84;38.02;101491.53;5024033;28;20529;-58
2022/05/16 10:05:17;;;;;;;13.15;4.70;;;;;;;28.94;38.24;101492.78;5029708;28;20037;-58
2022/05/16 10:07:50;;;;;;;20.15;4.60;;;;;;;28.75;39.68;101498.25;5015261;28;21045;-58
2022/05/16 10:10:21;;;;;;;13.57;4.78;;;;;;;28.12;42.17;101505.88;5022352;28;20052;-59
2022/05/16 10:12:48;;;;;;;28.08;5.78;;;;;;;27.41;45.89;101520.91;5021984;28;20510;-58
2022/05/16 10:15:14;;;;;;;22.02;5.13;;;;;;;26.68;48.96;101536.66;5028302;28;20459;-58
2022/05/16 10:17:43;;;;;;;14.65;5.85;;;;;;;25.79;53.74;101549.22;5021286;28;20591;-59
2022/05/16 10:20:38;;;;;;;13.13;5.22;;;;;;;24.83;55.00;101562.50;5033524;28;20510;-59
2022/05/16 10:23:08;;;;;;;10.25;5.32;;;;;;;24.66;57.16;101568.44;5023859;28;20498;-59
2022/05/16 10:25:44;;;;;;;12.63;5.55;;;;;;;24.49;58.53;101571.66;5020915;28;20337;-58
2022/05/16 10:28:19;;;;;;;13.10;5.57;;;;;;;24.65;60.42;101590.66;5029623;28;20109;-58
2022/05/16 10:33:34;;;;;;;12.30;5.70;;;;;;;24.75;56.83;101600.13;5019037;28;20059;-60
2022/05/16 10:36:23;;;;;;;18.58;6.20;;;;;;;24.91;55.85;101609.38;5024660;28;20575;-59
2022/05/16 10:38:58;;;;;;;17.20;6.72;;;;;;;24.91;57.62;101614.72;5020220;28;20899;-59
2022/05/16 10:41:32;;;;;;;14.82;7.00;;;;;;;25.39;54.40;101608.56;5019166;28;20059;-59
2022/05/16 10:44:16;;;;;;;20.00;8.18;;;;;;;25.24;55.05;101620.69;5030475;28;20054;-60
2022/05/16 10:46:45;;;;;;;;;;;;;;;24.99;55.64;101620.66;5029433;28;20040;-59
2022/05/16 10:49:16;;;;;;;17.10;9.48;;;;;;;24.76;56.68;101630.34;5010643;28;20281;-59
2022/05/16 10:52:04;;;;;;;20.27;9.80;;;;;;;24.71;56.41;101635.81;5000533;28;20132;-58
2022/05/16 10:54:29;;;;;;;23.98;10.77;;;;;;;24.23;57.80;101623.13;5013402;28;20144;-59
2022/05/16 10:57:13;;;;;;;23.98;12.00;;;;;;;24.09;58.72;101633.31;4982166;28;20056;-59
2022/05/16 10:59:57;;;;;;;;;;;;;;;24.22;57.33;101641.81;4985463;28;21461;-58
2022/05/16 11:02:41;;;;;;;31.38;15.52;;;;;;;24.17;57.48;101641.94;4982249;28;19921;-59
2022/05/16 11:05:17;;;;;;;29.05;17.00;;;;;;;24.16;56.07;101636.66;4966790;28;20046;-59
2022/05/16 11:08:02;;;;;;;25.73;16.00;;;;;;;24.34;56.12;101636.09;4968727;28;20100;-57
2022/05/16 11:10:36;;;;;;;26.58;14.15;;;;;;;24.58;54.84;101646.00;4973466;28;20061;-58
2022/05/16 11:13:20;;;;;;;23.35;12.80;;;;;;;24.27;55.19;101634.59;4973136;28;20608;-59
2022/05/16 11:15:56;;;;;;;;;;;;;;;24.38;54.96;101644.91;4979463;28;20052;-59
2022/05/16 11:18:36;;;;;;;20.05;11.60;;;;;;;24.20;54.83;101657.88;4979169;28;19921;-58
2022/05/16 11:21:30;;;;;;;18.80;11.30;;;;;;;24.22;54.12;101664.00;4979827;28;20693;-59
2022/05/16 11:24:13;;;;;;;17.25;10.50;;;;;;;23.57;55.73;101667.69;4966698;28;20050;-59
2022/05/16 11:27:00;;;;;;;18.58;9.77;;;;;;;23.42;56.05;101666.31;4965533;28;20050;-59
2022/05/16 11:30:02;;;;;;;18.42;9.98;;;;;;;23.26;58.18;101681.81;4968843;28;20687;-60
2022/05/16 11:33:03;;;;;;;14.18;9.32;;;;;;;22.96;58.45;101670.16;4982190;28;20192;-59
2022/05/16 11:35:49;;;;;;;16.48;9.13;;;;;;;22.54;58.73;101674.72;4963786;28;20077;-59
2022/05/16 11:38:20;;;;;;;18.42;9.45;;;;;;;22.22;61.32;101670.13;4969944;28;20088;-59
2022/05/16 11:41:05;;;;;;;26.48;11.20;;;;;;;21.94;63.60;101684.00;4973592;28;20454;-59
2022/05/16 11:43:34;;;;;;;18.95;10.35;;;;;;;21.99;61.81;101685.69;4969784;28;20034;-58
2022/05/16 11:46:33;;;;;;;19.92;11.48;;;;;;;21.91;61.69;101692.00;4982530;28;20440;-59
2022/05/16 11:49:26;;;;;;;24.10;13.82;;;;;;;21.64;63.18;101696.09;4978111;28;20486;-57
2022/05/16 11:52:29;;;;;;;23.70;14.30;;;;;;;21.41;62.52;101697.38;4977954;28;20163;-57
2022/05/16 12:01:00;;;;;;;32.65;18.70;;;;;;;21.75;60.90;101705.59;4972313;28;20077;-59
2022/05/16 12:03:40;;;;;;;35.70;19.85;;;;;;;21.92;61.79;101699.94;4973747;28;20503;-59
2022/05/16 12:06:22;;;;;;;38.60;19.27;;;;;;;22.00;61.35;101700.72;4977729;28;20038;-59
2022/05/16 12:08:48;;;;;;;35.08;19.60;;;;;;;22.07;61.00;101688.19;4976391;28;20838;-59
2022/05/16 12:11:19;;;;;;;39.20;19.95;;;;;;;22.34;61.07;101699.97;4972717;28;20299;-57
2022/05/16 12:14:03;;;;;;;37.20;20.05;;;;;;;22.62;60.31;101706.44;4979138;28;20068;-59
2022/05/16 12:16:53;;;;;;;33.90;17.75;;;;;;;22.76;58.38;101717.63;4978196;28;20041;-59
2022/05/16 12:19:32;;;;;;;30.65;18.75;;;;;;;22.79;57.79;101722.88;4972187;28;20050;-61
2022/05/16 12:22:07;;;;;;;34.03;18.88;;;;;;;22.79;58.00;101716.69;4974857;28;20576;-59